sensor_id;sensor_type;location;lat;lon;timestamp;P1;durP1;ratioP1;P2;durP2;ratioP2
7545;SDS011;3814;51.454;12.616;2022-12-16T00:00:13;37.13;;;12.77;;
7545;SDS011;3814;51.454;12.616;2022-12-16T00:02:39;36.28;;;12.32;;
7545;SDS011;3814;51.454;12.616;2022-12-16T00:05:05;36.58;;;12.07;;
7545;SDS011;3814;51.454;12.616;2022-12-16T00:07:30;36.25;;;12.25;;
7545;SDS011;3814;51.454;12.616;2022-12-16T00:09:56;35.83;;;11.95;;
7545;SDS011;3814;51.454;12.616;2022-12-16T00:12:21;37.92;;;13.00;;
7545;SDS011;3814;51.454;12.616;2022-12-16T00:14:46;44.28;;;13.75;;
7545;SDS011;3814;51.454;12.616;2022-12-16T00:17:12;37.97;;;12.48;;
7545;SDS011;3814;51.454;12.616;2022-12-16T00:19:37;35.88;;;12.70;;
7545;SDS011;3814;51.454;12.616;2022-12-16T00:22:02;39.58;;;12.05;;
7545;SDS011;3814;51.454;12.616;2022-12-16T00:24:28;37.35;;;12.90;;
7545;SDS011;3814;51.454;12.616;2022-12-16T00:26:55;37.10;;;11.63;;
7545;SDS011;3814;51.454;12.616;2022-12-16T00:29:21;41.63;;;12.00;;
7545;SDS011;3814;51.454;12.616;2022-12-16T00:31:46;41.80;;;13.02;;
7545;SDS011;3814;51.454;12.616;2022-12-16T00:34:12;37.97;;;12.23;;
7545;SDS011;3814;51.454;12.616;2022-12-16T00:36:38;35.90;;;10.88;;
7545;SDS011;3814;51.454;12.616;2022-12-16T00:39:03;36.63;;;11.40;;
7545;SDS011;3814;51.454;12.616;2022-12-16T00:41:28;40.50;;;12.57;;
7545;SDS011;3814;51.454;12.616;2022-12-16T00:43:54;42.97;;;12.30;;
7545;SDS011;3814;51.454;12.616;2022-12-16T00:46:19;41.30;;;12.20;;
7545;SDS011;3814;51.454;12.616;2022-12-16T00:48:44;42.83;;;12.27;;
7545;SDS011;3814;51.454;12.616;2022-12-16T00:51:10;40.88;;;12.95;;
7545;SDS011;3814;51.454;12.616;2022-12-16T00:53:35;38.38;;;11.52;;
7545;SDS011;3814;51.454;12.616;2022-12-16T00:56:02;39.35;;;11.13;;
7545;SDS011;3814;51.454;12.616;2022-12-16T00:58:32;45.13;;;13.55;;
7545;SDS011;3814;51.454;12.616;2022-12-16T01:00:58;38.08;;;11.27;;
7545;SDS011;3814;51.454;12.616;2022-12-16T01:03:23;39.03;;;11.85;;
7545;SDS011;3814;51.454;12.616;2022-12-16T01:05:49;38.08;;;12.20;;
7545;SDS011;3814;51.454;12.616;2022-12-16T01:08:14;30.77;;;10.45;;
7545;SDS011;3814;51.454;12.616;2022-12-16T01:10:39;41.58;;;13.30;;
7545;SDS011;3814;51.454;12.616;2022-12-16T01:13:05;47.25;;;13.73;;
7545;SDS011;3814;51.454;12.616;2022-12-16T01:15:30;38.30;;;11.18;;
7545;SDS011;3814;51.454;12.616;2022-12-16T01:17:55;32.33;;;11.43;;
7545;SDS011;3814;51.454;12.616;2022-12-16T01:20:21;42.90;;;11.73;;
7545;SDS011;3814;51.454;12.616;2022-12-16T01:22:46;40.55;;;12.73;;
7545;SDS011;3814;51.454;12.616;2022-12-16T01:25:11;40.25;;;12.63;;
7545;SDS011;3814;51.454;12.616;2022-12-16T01:27:37;36.83;;;11.30;;
7545;SDS011;3814;51.454;12.616;2022-12-16T01:30:03;38.80;;;12.23;;
7545;SDS011;3814;51.454;12.616;2022-12-16T01:32:28;46.10;;;13.13;;
7545;SDS011;3814;51.454;12.616;2022-12-16T01:34:54;41.95;;;10.80;;
7545;SDS011;3814;51.454;12.616;2022-12-16T01:37:19;49.90;;;13.90;;
7545;SDS011;3814;51.454;12.616;2022-12-16T01:39:45;41.03;;;13.32;;
7545;SDS011;3814;51.454;12.616;2022-12-16T01:42:11;37.42;;;12.68;;
7545;SDS011;3814;51.454;12.616;2022-12-16T01:44:37;44.30;;;13.73;;
7545;SDS011;3814;51.454;12.616;2022-12-16T01:47:04;40.70;;;12.73;;
7545;SDS011;3814;51.454;12.616;2022-12-16T01:49:33;39.95;;;14.00;;
7545;SDS011;3814;51.454;12.616;2022-12-16T01:52:02;41.08;;;12.70;;
7545;SDS011;3814;51.454;12.616;2022-12-16T01:54:30;38.03;;;12.73;;
7545;SDS011;3814;51.454;12.616;2022-12-16T01:57:08;39.53;;;11.65;;
7545;SDS011;3814;51.454;12.616;2022-12-16T01:59:37;33.03;;;11.60;;
7545;SDS011;3814;51.454;12.616;2022-12-16T02:02:03;42.40;;;12.73;;
7545;SDS011;3814;51.454;12.616;2022-12-16T02:04:29;40.47;;;13.10;;
7545;SDS011;3814;51.454;12.616;2022-12-16T02:06:54;37.88;;;11.18;;
7545;SDS011;3814;51.454;12.616;2022-12-16T02:09:19;43.88;;;12.63;;
7545;SDS011;3814;51.454;12.616;2022-12-16T02:12:05;39.88;;;13.55;;
7545;SDS011;3814;51.454;12.616;2022-12-16T02:20:08;44.00;;;12.20;;
7545;SDS011;3814;51.454;12.616;2022-12-16T02:33:59;42.58;;;12.23;;
7545;SDS011;3814;51.454;12.616;2022-12-16T02:36:40;38.63;;;12.68;;
7545;SDS011;3814;51.454;12.616;2022-12-16T02:39:20;40.03;;;11.95;;
7545;SDS011;3814;51.454;12.616;2022-12-16T02:41:50;41.28;;;13.07;;
7545;SDS011;3814;51.454;12.616;2022-12-16T02:44:20;37.53;;;11.05;;
7545;SDS011;3814;51.454;12.616;2022-12-16T02:46:53;39.35;;;11.85;;
7545;SDS011;3814;51.454;12.616;2022-12-16T02:51:44;34.93;;;10.97;;
7545;SDS011;3814;51.454;12.616;2022-12-16T02:54:11;37.42;;;12.15;;
7545;SDS011;3814;51.454;12.616;2022-12-16T02:56:45;41.85;;;11.48;;
7545;SDS011;3814;51.454;12.616;2022-12-16T03:02:04;38.55;;;12.20;;
7545;SDS011;3814;51.454;12.616;2022-12-16T03:04:37;43.33;;;12.50;;
7545;SDS011;3814;51.454;12.616;2022-12-16T03:07:10;43.15;;;11.70;;
7545;SDS011;3814;51.454;12.616;2022-12-16T03:09:38;36.55;;;11.57;;
7545;SDS011;3814;51.454;12.616;2022-12-16T03:12:04;33.28;;;10.93;;
7545;SDS011;3814;51.454;12.616;2022-12-16T03:14:33;35.95;;;11.13;;
7545;SDS011;3814;51.454;12.616;2022-12-16T03:17:00;41.17;;;12.18;;
7545;SDS011;3814;51.454;12.616;2022-12-16T03:19:27;39.35;;;11.27;;
7545;SDS011;3814;51.454;12.616;2022-12-16T03:22:00;35.00;;;10.43;;
7545;SDS011;3814;51.454;12.616;2022-12-16T03:24:28;39.05;;;10.95;;
7545;SDS011;3814;51.454;12.616;2022-12-16T03:26:55;43.45;;;11.98;;
7545;SDS011;3814;51.454;12.616;2022-12-16T03:29:43;40.03;;;11.35;;
7545;SDS011;3814;51.454;12.616;2022-12-16T03:35:06;33.42;;;10.68;;
7545;SDS011;3814;51.454;12.616;2022-12-16T03:37:37;41.63;;;11.50;;
7545;SDS011;3814;51.454;12.616;2022-12-16T03:40:04;41.75;;;12.43;;
7545;SDS011;3814;51.454;12.616;2022-12-16T03:42:31;39.88;;;11.40;;
7545;SDS011;3814;51.454;12.616;2022-12-16T03:44:57;39.17;;;12.63;;
7545;SDS011;3814;51.454;12.616;2022-12-16T03:47:26;40.22;;;12.68;;
7545;SDS011;3814;51.454;12.616;2022-12-16T03:49:52;44.53;;;13.13;;
7545;SDS011;3814;51.454;12.616;2022-12-16T03:52:18;46.35;;;14.00;;
7545;SDS011;3814;51.454;12.616;2022-12-16T03:54:43;43.85;;;13.30;;
7545;SDS011;3814;51.454;12.616;2022-12-16T03:57:08;37.00;;;11.85;;
7545;SDS011;3814;51.454;12.616;2022-12-16T03:59:34;38.50;;;12.32;;
7545;SDS011;3814;51.454;12.616;2022-12-16T04:01:59;36.60;;;12.70;;
7545;SDS011;3814;51.454;12.616;2022-12-16T04:04:24;36.88;;;11.32;;
7545;SDS011;3814;51.454;12.616;2022-12-16T04:06:50;32.88;;;10.70;;
7545;SDS011;3814;51.454;12.616;2022-12-16T04:09:35;36.70;;;11.50;;
7545;SDS011;3814;51.454;12.616;2022-12-16T04:12:00;42.30;;;12.27;;
7545;SDS011;3814;51.454;12.616;2022-12-16T04:14:44;36.65;;;11.18;;
7545;SDS011;3814;51.454;12.616;2022-12-16T04:17:28;37.80;;;11.57;;
7545;SDS011;3814;51.454;12.616;2022-12-16T04:20:14;39.30;;;11.50;;
7545;SDS011;3814;51.454;12.616;2022-12-16T04:22:58;37.58;;;11.95;;
7545;SDS011;3814;51.454;12.616;2022-12-16T04:25:42;33.95;;;10.60;;
7545;SDS011;3814;51.454;12.616;2022-12-16T04:28:07;38.63;;;12.02;;
7545;SDS011;3814;51.454;12.616;2022-12-16T04:30:33;39.05;;;13.35;;
7545;SDS011;3814;51.454;12.616;2022-12-16T04:32:59;38.40;;;12.13;;
7545;SDS011;3814;51.454;12.616;2022-12-16T04:35:45;33.85;;;11.05;;
7545;SDS011;3814;51.454;12.616;2022-12-16T04:38:29;39.20;;;12.20;;
7545;SDS011;3814;51.454;12.616;2022-12-16T04:41:13;37.03;;;11.50;;
7545;SDS011;3814;51.454;12.616;2022-12-16T04:43:57;39.83;;;12.30;;
7545;SDS011;3814;51.454;12.616;2022-12-16T04:46:41;39.28;;;10.63;;
7545;SDS011;3814;51.454;12.616;2022-12-16T04:49:25;39.00;;;11.18;;
7545;SDS011;3814;51.454;12.616;2022-12-16T04:52:09;39.00;;;12.20;;
7545;SDS011;3814;51.454;12.616;2022-12-16T04:54:53;35.17;;;11.35;;
7545;SDS011;3814;51.454;12.616;2022-12-16T04:57:37;33.78;;;11.77;;
7545;SDS011;3814;51.454;12.616;2022-12-16T05:00:21;37.03;;;11.35;;
7545;SDS011;3814;51.454;12.616;2022-12-16T05:03:06;42.05;;;12.10;;
7545;SDS011;3814;51.454;12.616;2022-12-16T05:05:50;34.38;;;11.70;;
7545;SDS011;3814;51.454;12.616;2022-12-16T05:08:33;37.80;;;11.35;;
7545;SDS011;3814;51.454;12.616;2022-12-16T05:11:18;43.38;;;12.77;;
7545;SDS011;3814;51.454;12.616;2022-12-16T05:14:01;39.97;;;11.65;;
7545;SDS011;3814;51.454;12.616;2022-12-16T05:16:45;39.50;;;12.80;;
7545;SDS011;3814;51.454;12.616;2022-12-16T05:19:29;41.65;;;12.43;;
7545;SDS011;3814;51.454;12.616;2022-12-16T05:22:13;39.72;;;12.43;;
7545;SDS011;3814;51.454;12.616;2022-12-16T05:24:57;42.22;;;12.38;;
7545;SDS011;3814;51.454;12.616;2022-12-16T05:27:41;31.05;;;11.48;;
7545;SDS011;3814;51.454;12.616;2022-12-16T05:30:25;35.90;;;11.32;;
7545;SDS011;3814;51.454;12.616;2022-12-16T05:33:09;36.72;;;11.20;;
7545;SDS011;3814;51.454;12.616;2022-12-16T05:35:53;40.80;;;12.02;;
7545;SDS011;3814;51.454;12.616;2022-12-16T05:38:37;35.50;;;12.55;;
7545;SDS011;3814;51.454;12.616;2022-12-16T05:41:21;44.15;;;12.65;;
7545;SDS011;3814;51.454;12.616;2022-12-16T05:44:05;36.60;;;12.40;;
7545;SDS011;3814;51.454;12.616;2022-12-16T05:46:49;37.50;;;11.52;;
7545;SDS011;3814;51.454;12.616;2022-12-16T05:49:33;41.08;;;11.98;;
7545;SDS011;3814;51.454;12.616;2022-12-16T05:52:17;39.72;;;12.57;;
7545;SDS011;3814;51.454;12.616;2022-12-16T05:55:01;47.28;;;14.13;;
7545;SDS011;3814;51.454;12.616;2022-12-16T05:57:49;45.00;;;13.35;;
7545;SDS011;3814;51.454;12.616;2022-12-16T06:00:34;39.60;;;12.82;;
7545;SDS011;3814;51.454;12.616;2022-12-16T06:03:18;45.40;;;13.35;;
7545;SDS011;3814;51.454;12.616;2022-12-16T06:06:02;35.00;;;12.00;;
7545;SDS011;3814;51.454;12.616;2022-12-16T06:08:46;34.60;;;11.48;;
7545;SDS011;3814;51.454;12.616;2022-12-16T06:11:30;42.80;;;12.55;;
7545;SDS011;3814;51.454;12.616;2022-12-16T06:14:14;43.17;;;12.80;;
7545;SDS011;3814;51.454;12.616;2022-12-16T06:16:58;37.50;;;12.23;;
7545;SDS011;3814;51.454;12.616;2022-12-16T06:19:42;36.72;;;12.07;;
7545;SDS011;3814;51.454;12.616;2022-12-16T06:22:26;38.38;;;12.60;;
7545;SDS011;3814;51.454;12.616;2022-12-16T06:25:10;39.90;;;12.27;;
7545;SDS011;3814;51.454;12.616;2022-12-16T06:27:54;42.40;;;13.82;;
7545;SDS011;3814;51.454;12.616;2022-12-16T06:30:38;39.40;;;12.23;;
7545;SDS011;3814;51.454;12.616;2022-12-16T06:33:22;41.10;;;12.38;;
7545;SDS011;3814;51.454;12.616;2022-12-16T06:36:06;43.38;;;13.73;;
7545;SDS011;3814;51.454;12.616;2022-12-16T06:38:50;38.72;;;12.05;;
7545;SDS011;3814;51.454;12.616;2022-12-16T06:41:34;36.70;;;12.10;;
7545;SDS011;3814;51.454;12.616;2022-12-16T06:44:18;35.80;;;11.18;;
7545;SDS011;3814;51.454;12.616;2022-12-16T06:47:02;42.50;;;13.52;;
7545;SDS011;3814;51.454;12.616;2022-12-16T06:49:46;37.15;;;11.35;;
7545;SDS011;3814;51.454;12.616;2022-12-16T06:52:37;43.20;;;12.82;;
7545;SDS011;3814;51.454;12.616;2022-12-16T06:55:24;36.40;;;12.57;;
7545;SDS011;3814;51.454;12.616;2022-12-16T06:58:12;39.60;;;12.10;;
7545;SDS011;3814;51.454;12.616;2022-12-16T07:00:56;41.90;;;12.82;;
7545;SDS011;3814;51.454;12.616;2022-12-16T07:03:40;42.33;;;12.68;;
7545;SDS011;3814;51.454;12.616;2022-12-16T07:06:24;48.20;;;13.95;;
7545;SDS011;3814;51.454;12.616;2022-12-16T07:09:09;44.00;;;13.25;;
7545;SDS011;3814;51.454;12.616;2022-12-16T07:11:53;40.50;;;14.00;;
7545;SDS011;3814;51.454;12.616;2022-12-16T07:14:37;43.13;;;13.07;;
7545;SDS011;3814;51.454;12.616;2022-12-16T07:17:21;41.30;;;13.23;;
7545;SDS011;3814;51.454;12.616;2022-12-16T07:20:05;37.75;;;12.63;;
7545;SDS011;3814;51.454;12.616;2022-12-16T07:22:50;40.95;;;12.80;;
7545;SDS011;3814;51.454;12.616;2022-12-16T07:25:34;40.40;;;12.68;;
7545;SDS011;3814;51.454;12.616;2022-12-16T07:28:25;44.83;;;13.43;;
7545;SDS011;3814;51.454;12.616;2022-12-16T07:31:12;45.28;;;11.73;;
7545;SDS011;3814;51.454;12.616;2022-12-16T07:33:56;38.45;;;11.23;;
7545;SDS011;3814;51.454;12.616;2022-12-16T07:36:46;40.25;;;12.20;;
7545;SDS011;3814;51.454;12.616;2022-12-16T07:39:31;38.35;;;12.40;;
7545;SDS011;3814;51.454;12.616;2022-12-16T07:42:16;36.85;;;11.52;;
7545;SDS011;3814;51.454;12.616;2022-12-16T07:45:00;42.13;;;12.10;;
7545;SDS011;3814;51.454;12.616;2022-12-16T07:47:48;36.40;;;11.68;;
7545;SDS011;3814;51.454;12.616;2022-12-16T07:50:32;35.22;;;12.45;;
7545;SDS011;3814;51.454;12.616;2022-12-16T07:53:16;42.05;;;13.27;;
7545;SDS011;3814;51.454;12.616;2022-12-16T07:56:00;38.80;;;12.77;;
7545;SDS011;3814;51.454;12.616;2022-12-16T07:58:44;29.65;;;11.82;;
7545;SDS011;3814;51.454;12.616;2022-12-16T08:01:28;40.60;;;12.43;;
7545;SDS011;3814;51.454;12.616;2022-12-16T08:04:13;36.63;;;11.75;;
7545;SDS011;3814;51.454;12.616;2022-12-16T08:06:57;36.60;;;11.70;;
7545;SDS011;3814;51.454;12.616;2022-12-16T08:09:41;44.45;;;12.48;;
7545;SDS011;3814;51.454;12.616;2022-12-16T08:12:25;45.95;;;12.35;;
7545;SDS011;3814;51.454;12.616;2022-12-16T08:15:09;33.50;;;10.20;;
7545;SDS011;3814;51.454;12.616;2022-12-16T08:17:53;39.75;;;12.07;;
7545;SDS011;3814;51.454;12.616;2022-12-16T08:20:37;43.25;;;14.15;;
7545;SDS011;3814;51.454;12.616;2022-12-16T08:23:21;45.35;;;12.65;;
7545;SDS011;3814;51.454;12.616;2022-12-16T08:26:08;37.63;;;12.35;;
7545;SDS011;3814;51.454;12.616;2022-12-16T08:28:52;36.15;;;11.63;;
7545;SDS011;3814;51.454;12.616;2022-12-16T08:31:37;39.42;;;11.63;;
7545;SDS011;3814;51.454;12.616;2022-12-16T08:34:37;31.80;;;10.90;;
7545;SDS011;3814;51.454;12.616;2022-12-16T08:37:21;39.50;;;12.55;;
7545;SDS011;3814;51.454;12.616;2022-12-16T08:40:05;52.10;;;14.15;;
7545;SDS011;3814;51.454;12.616;2022-12-16T08:42:50;35.35;;;14.05;;
7545;SDS011;3814;51.454;12.616;2022-12-16T08:45:39;41.10;;;12.80;;
7545;SDS011;3814;51.454;12.616;2022-12-16T08:48:23;37.67;;;12.77;;
7545;SDS011;3814;51.454;12.616;2022-12-16T08:51:13;35.03;;;11.80;;
7545;SDS011;3814;51.454;12.616;2022-12-16T08:53:57;34.25;;;11.88;;
7545;SDS011;3814;51.454;12.616;2022-12-16T08:56:41;35.75;;;11.35;;
7545;SDS011;3814;51.454;12.616;2022-12-16T08:59:42;33.35;;;11.05;;
7545;SDS011;3814;51.454;12.616;2022-12-16T09:02:26;39.70;;;12.32;;
7545;SDS011;3814;51.454;12.616;2022-12-16T09:05:10;43.85;;;13.23;;
7545;SDS011;3814;51.454;12.616;2022-12-16T09:08:00;45.92;;;13.57;;
7545;SDS011;3814;51.454;12.616;2022-12-16T09:10:45;31.60;;;11.50;;
7545;SDS011;3814;51.454;12.616;2022-12-16T09:13:29;35.40;;;12.13;;
7545;SDS011;3814;51.454;12.616;2022-12-16T09:16:13;36.70;;;11.30;;
7545;SDS011;3814;51.454;12.616;2022-12-16T09:18:57;38.30;;;11.88;;
7545;SDS011;3814;51.454;12.616;2022-12-16T09:21:41;35.65;;;11.82;;
7545;SDS011;3814;51.454;12.616;2022-12-16T09:24:25;35.55;;;11.80;;
7545;SDS011;3814;51.454;12.616;2022-12-16T09:27:09;33.55;;;12.48;;
7545;SDS011;3814;51.454;12.616;2022-12-16T09:29:53;37.00;;;11.55;;
7545;SDS011;3814;51.454;12.616;2022-12-16T09:32:44;38.58;;;12.45;;
7545;SDS011;3814;51.454;12.616;2022-12-16T09:35:28;34.78;;;12.30;;
7545;SDS011;3814;51.454;12.616;2022-12-16T09:38:12;39.08;;;12.90;;
7545;SDS011;3814;51.454;12.616;2022-12-16T09:40:57;38.42;;;12.65;;
7545;SDS011;3814;51.454;12.616;2022-12-16T09:43:50;41.45;;;12.93;;
7545;SDS011;3814;51.454;12.616;2022-12-16T09:46:51;34.65;;;11.82;;
7545;SDS011;3814;51.454;12.616;2022-12-16T09:49:50;34.10;;;11.98;;
7545;SDS011;3814;51.454;12.616;2022-12-16T09:52:37;33.92;;;12.02;;
7545;SDS011;3814;51.454;12.616;2022-12-16T09:55:31;30.83;;;12.15;;
7545;SDS011;3814;51.454;12.616;2022-12-16T09:58:20;34.67;;;11.90;;
7545;SDS011;3814;51.454;12.616;2022-12-16T10:01:06;36.03;;;11.98;;
7545;SDS011;3814;51.454;12.616;2022-12-16T10:03:53;37.42;;;11.95;;
7545;SDS011;3814;51.454;12.616;2022-12-16T10:06:48;36.35;;;12.32;;
7545;SDS011;3814;51.454;12.616;2022-12-16T10:22:19;35.45;;;12.55;;
7545;SDS011;3814;51.454;12.616;2022-12-16T10:25:16;34.72;;;13.52;;
7545;SDS011;3814;51.454;12.616;2022-12-16T10:28:17;33.13;;;13.15;;
7545;SDS011;3814;51.454;12.616;2022-12-16T10:31:03;36.03;;;13.05;;
7545;SDS011;3814;51.454;12.616;2022-12-16T10:33:56;36.28;;;13.10;;
7545;SDS011;3814;51.454;12.616;2022-12-16T10:36:40;32.10;;;12.90;;
7545;SDS011;3814;51.454;12.616;2022-12-16T10:39:28;36.78;;;13.68;;
7545;SDS011;3814;51.454;12.616;2022-12-16T10:42:20;38.13;;;13.60;;
7545;SDS011;3814;51.454;12.616;2022-12-16T10:45:13;35.38;;;14.18;;
7545;SDS011;3814;51.454;12.616;2022-12-16T10:48:01;37.30;;;14.15;;
7545;SDS011;3814;51.454;12.616;2022-12-16T10:50:45;41.75;;;14.82;;
7545;SDS011;3814;51.454;12.616;2022-12-16T10:53:29;39.38;;;13.95;;
7545;SDS011;3814;51.454;12.616;2022-12-16T10:56:22;39.22;;;14.45;;
7545;SDS011;3814;51.454;12.616;2022-12-16T10:59:07;39.53;;;14.63;;
7545;SDS011;3814;51.454;12.616;2022-12-16T11:01:56;36.58;;;13.63;;
7545;SDS011;3814;51.454;12.616;2022-12-16T11:04:45;42.90;;;15.80;;
7545;SDS011;3814;51.454;12.616;2022-12-16T11:07:36;46.63;;;16.42;;
7545;SDS011;3814;51.454;12.616;2022-12-16T11:13:11;42.45;;;14.75;;
7545;SDS011;3814;51.454;12.616;2022-12-16T11:16:04;39.42;;;14.43;;
7545;SDS011;3814;51.454;12.616;2022-12-16T11:18:50;46.08;;;16.25;;
7545;SDS011;3814;51.454;12.616;2022-12-16T11:21:34;44.08;;;15.20;;
7545;SDS011;3814;51.454;12.616;2022-12-16T11:24:19;45.97;;;17.33;;
7545;SDS011;3814;51.454;12.616;2022-12-16T11:27:04;44.70;;;17.52;;
7545;SDS011;3814;51.454;12.616;2022-12-16T11:30:00;43.30;;;14.10;;
7545;SDS011;3814;51.454;12.616;2022-12-16T11:32:50;42.58;;;14.85;;
7545;SDS011;3814;51.454;12.616;2022-12-16T11:35:37;48.67;;;15.52;;
7545;SDS011;3814;51.454;12.616;2022-12-16T11:38:48;44.63;;;15.85;;
7545;SDS011;3814;51.454;12.616;2022-12-16T11:41:41;44.60;;;15.15;;
7545;SDS011;3814;51.454;12.616;2022-12-16T11:44:47;63.30;;;22.90;;
7545;SDS011;3814;51.454;12.616;2022-12-16T11:50:55;42.92;;;15.30;;
7545;SDS011;3814;51.454;12.616;2022-12-16T11:53:58;53.70;;;19.00;;
7545;SDS011;3814;51.454;12.616;2022-12-16T11:56:50;43.88;;;15.75;;
7545;SDS011;3814;51.454;12.616;2022-12-16T12:05:14;46.10;;;16.73;;
7545;SDS011;3814;51.454;12.616;2022-12-16T12:08:00;46.20;;;16.00;;
7545;SDS011;3814;51.454;12.616;2022-12-16T12:11:05;45.67;;;16.02;;
7545;SDS011;3814;51.454;12.616;2022-12-16T12:13:57;48.47;;;15.60;;
7545;SDS011;3814;51.454;12.616;2022-12-16T12:17:06;40.90;;;15.30;;
7545;SDS011;3814;51.454;12.616;2022-12-16T12:23:00;47.53;;;18.17;;
7545;SDS011;3814;51.454;12.616;2022-12-16T12:26:01;41.92;;;15.82;;
7545;SDS011;3814;51.454;12.616;2022-12-16T12:29:01;52.83;;;17.50;;
7545;SDS011;3814;51.454;12.616;2022-12-16T12:31:56;47.63;;;16.58;;
7545;SDS011;3814;51.454;12.616;2022-12-16T12:34:44;46.50;;;15.85;;
7545;SDS011;3814;51.454;12.616;2022-12-16T12:37:45;48.08;;;16.63;;
7545;SDS011;3814;51.454;12.616;2022-12-16T12:40:45;45.22;;;15.02;;
7545;SDS011;3814;51.454;12.616;2022-12-16T12:46:47;44.70;;;16.52;;
7545;SDS011;3814;51.454;12.616;2022-12-16T12:52:47;48.53;;;16.60;;
7545;SDS011;3814;51.454;12.616;2022-12-16T12:56:04;46.95;;;15.65;;
7545;SDS011;3814;51.454;12.616;2022-12-16T12:58:51;48.45;;;17.48;;
7545;SDS011;3814;51.454;12.616;2022-12-16T13:01:36;46.08;;;16.02;;
7545;SDS011;3814;51.454;12.616;2022-12-16T13:04:23;48.78;;;16.92;;
7545;SDS011;3814;51.454;12.616;2022-12-16T13:07:08;50.85;;;17.27;;
7545;SDS011;3814;51.454;12.616;2022-12-16T13:13:19;44.03;;;16.33;;
7545;SDS011;3814;51.454;12.616;2022-12-16T13:16:09;42.38;;;15.52;;
7545;SDS011;3814;51.454;12.616;2022-12-16T13:22:29;49.83;;;17.83;;
7545;SDS011;3814;51.454;12.616;2022-12-16T13:28:21;46.90;;;16.60;;
7545;SDS011;3814;51.454;12.616;2022-12-16T13:31:07;48.85;;;18.05;;
7545;SDS011;3814;51.454;12.616;2022-12-16T13:33:52;47.90;;;16.85;;
7545;SDS011;3814;51.454;12.616;2022-12-16T13:36:36;51.70;;;17.58;;
7545;SDS011;3814;51.454;12.616;2022-12-16T13:42:29;43.08;;;15.95;;
7545;SDS011;3814;51.454;12.616;2022-12-16T13:45:37;44.13;;;16.30;;
7545;SDS011;3814;51.454;12.616;2022-12-16T13:48:29;43.10;;;14.80;;
7545;SDS011;3814;51.454;12.616;2022-12-16T13:55:04;41.45;;;15.35;;
7545;SDS011;3814;51.454;12.616;2022-12-16T13:57:39;42.03;;;14.80;;
7545;SDS011;3814;51.454;12.616;2022-12-16T14:00:26;38.13;;;14.55;;
7545;SDS011;3814;51.454;12.616;2022-12-16T14:03:18;40.58;;;15.02;;
7545;SDS011;3814;51.454;12.616;2022-12-16T14:06:07;40.83;;;14.70;;
7545;SDS011;3814;51.454;12.616;2022-12-16T14:08:55;39.67;;;14.88;;
7545;SDS011;3814;51.454;12.616;2022-12-16T14:11:45;34.60;;;14.10;;
7545;SDS011;3814;51.454;12.616;2022-12-16T14:14:35;45.03;;;15.13;;
7545;SDS011;3814;51.454;12.616;2022-12-16T14:17:49;37.75;;;12.65;;
7545;SDS011;3814;51.454;12.616;2022-12-16T14:21:27;46.00;;;16.35;;
7545;SDS011;3814;51.454;12.616;2022-12-16T14:23:50;46.75;;;16.45;;
7545;SDS011;3814;51.454;12.616;2022-12-16T14:26:36;47.90;;;17.02;;
7545;SDS011;3814;51.454;12.616;2022-12-16T14:29:27;45.90;;;16.23;;
7545;SDS011;3814;51.454;12.616;2022-12-16T14:32:30;50.58;;;17.25;;
7545;SDS011;3814;51.454;12.616;2022-12-16T14:44:00;56.78;;;18.33;;
7545;SDS011;3814;51.454;12.616;2022-12-16T14:46:49;59.83;;;20.23;;
7545;SDS011;3814;51.454;12.616;2022-12-16T14:49:33;58.28;;;19.67;;
7545;SDS011;3814;51.454;12.616;2022-12-16T14:52:21;61.40;;;19.45;;
7545;SDS011;3814;51.454;12.616;2022-12-16T14:55:14;62.75;;;21.08;;
7545;SDS011;3814;51.454;12.616;2022-12-16T14:58:16;58.28;;;17.90;;
7545;SDS011;3814;51.454;12.616;2022-12-16T15:03:59;49.53;;;17.50;;
7545;SDS011;3814;51.454;12.616;2022-12-16T15:06:45;57.22;;;19.08;;
7545;SDS011;3814;51.454;12.616;2022-12-16T15:09:35;59.28;;;19.95;;
7545;SDS011;3814;51.454;12.616;2022-12-16T15:12:21;54.40;;;18.98;;
7545;SDS011;3814;51.454;12.616;2022-12-16T15:15:08;59.38;;;19.40;;
7545;SDS011;3814;51.454;12.616;2022-12-16T15:17:56;57.20;;;19.77;;
7545;SDS011;3814;51.454;12.616;2022-12-16T15:20:47;65.93;;;21.23;;
7545;SDS011;3814;51.454;12.616;2022-12-16T15:23:38;64.30;;;19.90;;
7545;SDS011;3814;51.454;12.616;2022-12-16T15:26:24;69.93;;;21.23;;
7545;SDS011;3814;51.454;12.616;2022-12-16T15:40:58;63.42;;;20.58;;
7545;SDS011;3814;51.454;12.616;2022-12-16T15:43:44;69.53;;;22.25;;
7545;SDS011;3814;51.454;12.616;2022-12-16T15:46:29;62.20;;;20.80;;
7545;SDS011;3814;51.454;12.616;2022-12-16T15:49:21;63.10;;;20.88;;
7545;SDS011;3814;51.454;12.616;2022-12-16T15:55:31;53.45;;;18.13;;
7545;SDS011;3814;51.454;12.616;2022-12-16T15:58:22;53.30;;;18.27;;
7545;SDS011;3814;51.454;12.616;2022-12-16T16:01:38;48.53;;;17.10;;
7545;SDS011;3814;51.454;12.616;2022-12-16T16:04:28;60.45;;;19.80;;
7545;SDS011;3814;51.454;12.616;2022-12-16T16:07:16;61.13;;;19.95;;
7545;SDS011;3814;51.454;12.616;2022-12-16T16:10:25;56.85;;;18.17;;
7545;SDS011;3814;51.454;12.616;2022-12-16T16:13:09;55.50;;;17.85;;
7545;SDS011;3814;51.454;12.616;2022-12-16T16:15:53;58.15;;;19.13;;
7545;SDS011;3814;51.454;12.616;2022-12-16T16:18:38;55.50;;;18.92;;
7545;SDS011;3814;51.454;12.616;2022-12-16T16:21:22;57.08;;;18.00;;
7545;SDS011;3814;51.454;12.616;2022-12-16T16:24:06;56.58;;;18.90;;
7545;SDS011;3814;51.454;12.616;2022-12-16T16:26:52;54.85;;;18.38;;
7545;SDS011;3814;51.454;12.616;2022-12-16T16:29:36;54.53;;;19.33;;
7545;SDS011;3814;51.454;12.616;2022-12-16T16:32:20;57.75;;;18.13;;
7545;SDS011;3814;51.454;12.616;2022-12-16T16:35:04;54.08;;;18.67;;
7545;SDS011;3814;51.454;12.616;2022-12-16T16:37:48;47.67;;;17.63;;
7545;SDS011;3814;51.454;12.616;2022-12-16T16:40:40;48.95;;;16.80;;
7545;SDS011;3814;51.454;12.616;2022-12-16T16:43:25;54.10;;;18.52;;
7545;SDS011;3814;51.454;12.616;2022-12-16T16:49:07;61.28;;;21.63;;
7545;SDS011;3814;51.454;12.616;2022-12-16T16:51:52;61.17;;;22.75;;
7545;SDS011;3814;51.454;12.616;2022-12-16T16:54:36;55.28;;;21.98;;
7545;SDS011;3814;51.454;12.616;2022-12-16T16:57:20;67.82;;;23.75;;
7545;SDS011;3814;51.454;12.616;2022-12-16T17:00:04;61.70;;;20.80;;
7545;SDS011;3814;51.454;12.616;2022-12-16T17:02:48;56.55;;;20.90;;
7545;SDS011;3814;51.454;12.616;2022-12-16T17:05:32;60.60;;;18.00;;
7545;SDS011;3814;51.454;12.616;2022-12-16T17:08:16;57.83;;;19.38;;
7545;SDS011;3814;51.454;12.616;2022-12-16T17:11:00;68.78;;;22.05;;
7545;SDS011;3814;51.454;12.616;2022-12-16T17:13:44;70.00;;;21.67;;
7545;SDS011;3814;51.454;12.616;2022-12-16T17:16:27;64.72;;;21.58;;
7545;SDS011;3814;51.454;12.616;2022-12-16T17:19:12;62.03;;;20.50;;
7545;SDS011;3814;51.454;12.616;2022-12-16T17:21:56;59.90;;;18.60;;
7545;SDS011;3814;51.454;12.616;2022-12-16T17:24:39;63.13;;;20.88;;
7545;SDS011;3814;51.454;12.616;2022-12-16T17:27:24;68.88;;;20.63;;
7545;SDS011;3814;51.454;12.616;2022-12-16T17:30:18;60.13;;;19.98;;
7545;SDS011;3814;51.454;12.616;2022-12-16T17:35:48;56.63;;;18.48;;
7545;SDS011;3814;51.454;12.616;2022-12-16T17:38:35;60.08;;;21.23;;
7545;SDS011;3814;51.454;12.616;2022-12-16T17:41:20;60.30;;;20.35;;
7545;SDS011;3814;51.454;12.616;2022-12-16T17:44:04;58.55;;;19.65;;
7545;SDS011;3814;51.454;12.616;2022-12-16T17:46:48;72.53;;;23.42;;
7545;SDS011;3814;51.454;12.616;2022-12-16T17:49:32;76.15;;;24.90;;